• Join FlightAware (Why Join?)
  • Login
  • US Flag 
10:49PM EDT


 

Airport Tracker/Info


-or-


 

Live Flight TrackerFlight Track Log ✈ KAL1241 ✈ 29-Apr-2013 ✈ RKSS / GMP - RKPC / CJU

Flight Track Log - Related Links

Times and Time Zones

All times are in EDT time to prevent confusion due to time zone crossing. See the KAL1241 flight status page for this flight to view local times or setup timezone preferences in your user account.

Time Position Orientation Groundspeed Altitude Reporting Facility
EDT Latitude Longitude Course Direction KTS MPH feet Rate Location/Type
01:43AM 37.1795 126.7614 184° South  Level Estimated
01:44AM 37.0532 126.7517 183° South  Level Estimated
01:45AM 36.9270 126.7421 183° South  Level Estimated
01:46AM 36.8007 126.7325 183° South  Level Estimated
01:47AM 36.6744 126.7230 183° South  Level Estimated
01:48AM 36.5482 126.7134 183° South  Level Estimated
01:49AM 36.4219 126.7039 183° South  Level Estimated
01:50AM 36.2956 126.6945 183° South  Level Estimated
01:51AM 36.1693 126.6850 183° South  Level Estimated
01:52AM 36.0431 126.6756 183° South  Level Estimated
01:53AM 35.9168 126.6662 183° South  Level Estimated
01:54AM 35.7905 126.6569 183° South  Level Estimated
01:55AM 35.6642 126.6476 183° South  Level Estimated
01:56AM 35.5379 126.6383 183° South  Level Estimated
01:57AM 35.4117 126.6290 183° South  Level Estimated
01:58AM 35.2854 126.6198 183° South  Level Estimated
01:59AM 35.1591 126.6106 183° South  Level Estimated
02:00AM 35.0328 126.6014 183° South  Level Estimated
02:01AM 34.9065 126.5923 183° South  Level Estimated
02:02AM 34.7803 126.5831 183° South  Level Estimated
02:03AM 34.6540 126.5741 183° South  Level Estimated
02:04AM 34.5277 126.5650 183° South  Level Estimated
02:05AM 34.4014 126.5559 183° South  Level Estimated
02:06AM 34.2751 126.5469 183° South  Level Estimated
02:07AM 34.1488 126.5380 183° South  Level Estimated
02:08AM 34.0225 126.5290 183° South  Level Estimated
02:09AM 33.8963 126.5201 183° South  Level Estimated
02:10AM 33.7700 126.5112 183° South  Level Estimated
02:11AM 33.6937 126.5058 183° South  Level Estimated
02:12AM 33.6175 126.5005 183° South  Level Estimated
02:13AM 33.5412 126.4951 183° South  Level Estimated
02:14AM 33.5113 126.4930 183° South  Level Estimated
02:15AM 33.5113 126.4930 203° Southwest  Level Estimated
02:16AM 33.5113 126.4930 203° Southwest  Level Estimated
02:17AM 33.5113 126.4930 203° Southwest  Level Estimated
02:18AM 33.5113 126.4930 203° Southwest  Level Estimated
02:19AM 33.5113 126.4930 203° Southwest  Level Estimated
02:20AM 33.5113 126.4930 203° Southwest  Level Estimated
02:21AM 33.5113 126.4930 203° Southwest  Level Estimated
02:22AM 33.5113 126.4930 203° Southwest  Level Estimated
02:23AM 33.5113 126.4930 203° Southwest  Level Estimated
02:24AM 33.5113 126.4930 203° Southwest  Level Estimated
02:25AM 33.5113 126.4930 203° Southwest  Level Estimated
02:26AM 33.5113 126.4930 203° Southwest  Level Estimated
02:27AM 33.5113 126.4930 203° Southwest  Level Estimated
02:28AM 33.5113 126.4930 203° Southwest  Level Estimated